createdAt,value
2018-04-29T00:02:14.783Z,93753.22
2018-04-29T00:04:42.446Z,93743.75
2018-04-29T00:07:10.065Z,93743.55
2018-04-29T00:09:37.956Z,93744.34
2018-04-29T00:12:05.601Z,93745.65
2018-04-29T00:14:33.180Z,93743.48
2018-04-29T00:17:00.832Z,93745.28
2018-04-29T00:19:28.491Z,93741.84
2018-04-29T00:21:56.121Z,93742.48
2018-04-29T00:24:24.365Z,93735.66
2018-04-29T00:26:51.947Z,93732.22
2018-04-29T00:29:19.543Z,93728.88
2018-04-29T00:31:47.210Z,93729.33
2018-04-29T00:34:14.826Z,93727.27
2018-04-29T00:36:42.488Z,93729.66
2018-04-29T00:39:10.151Z,93729.42
2018-04-29T00:41:37.806Z,93731.48
2018-04-29T00:44:05.543Z,93733.23
2018-04-29T00:46:33.267Z,93729.74
2018-04-29T00:49:00.880Z,93736.30
2018-04-29T00:51:40.344Z,93729.26
2018-04-29T00:54:08.083Z,93730.87
2018-04-29T00:56:35.740Z,93724.05
2018-04-29T00:59:03.437Z,93725.16
2018-04-29T01:01:31.056Z,93724.93
2018-04-29T01:03:58.711Z,93720.40
2018-04-29T01:06:26.366Z,93721.30
2018-04-29T01:08:53.970Z,93719.41
2018-04-29T01:11:21.684Z,93719.31
2018-04-29T01:13:49.398Z,93719.98
2018-04-29T01:16:17.060Z,93719.23
2018-04-29T01:18:44.765Z,93719.45
2018-04-29T01:21:12.423Z,93721.81
2018-04-29T01:23:40.096Z,93719.19
2018-04-29T01:26:07.726Z,93717.83
2018-04-29T01:28:35.394Z,93715.47
2018-04-29T01:31:03.001Z,93716.16
2018-04-29T01:33:30.638Z,93708.66
2018-04-29T01:35:58.262Z,93704.61
2018-04-29T01:38:25.943Z,93708.92
2018-04-29T01:40:53.614Z,93704.55
2018-04-29T01:43:22.140Z,93714.20
2018-04-29T01:45:49.779Z,93713.68
2018-04-29T01:48:17.469Z,93720.42
2018-04-29T01:50:45.105Z,93721.15
2018-04-29T01:53:12.762Z,93711.83
2018-04-29T01:55:40.376Z,93712.61
2018-04-29T01:58:08.026Z,93718.50
2018-04-29T02:00:35.636Z,93722.06
2018-04-29T02:03:03.913Z,93717.70
2018-04-29T02:05:31.587Z,93716.90
2018-04-29T02:07:59.222Z,93712.05
2018-04-29T02:10:27.118Z,93710.78
2018-04-29T02:12:54.794Z,93709.59
2018-04-29T02:15:22.398Z,93705.59
2018-04-29T02:17:50.063Z,93704.02
2018-04-29T02:20:17.692Z,93716.03
2018-04-29T02:22:45.517Z,93715.64
2018-04-29T02:25:13.103Z,93708.72
2018-04-29T02:27:40.703Z,93708.75
2018-04-29T02:30:08.355Z,93702.20
2018-04-29T02:32:35.991Z,93700.91
2018-04-29T02:35:03.691Z,93704.91
2018-04-29T02:37:31.324Z,93700.17
2018-04-29T02:39:58.960Z,93690.57
2018-04-29T02:42:26.634Z,93702.38
2018-04-29T02:44:54.321Z,93701.47
2018-04-29T02:47:21.932Z,93707.06
2018-04-29T02:49:49.597Z,93706.80
2018-04-29T02:52:17.193Z,93708.14
2018-04-29T02:54:44.841Z,93705.44
2018-04-29T02:57:12.498Z,93709.26
2018-04-29T02:59:40.147Z,93710.95
2018-04-29T03:02:07.731Z,93711.53
2018-04-29T03:04:35.304Z,93707.86
2018-04-29T03:07:02.982Z,93703.84
2018-04-29T03:09:30.629Z,93709.03
2018-04-29T03:11:58.218Z,93704.46
2018-04-29T03:14:25.846Z,93701.09
2018-04-29T03:16:53.455Z,93691.33
2018-04-29T03:19:21.094Z,93694.19
2018-04-29T03:21:48.772Z,93696.36
2018-04-29T03:24:16.359Z,93696.96
2018-04-29T03:26:44.022Z,93697.91
2018-04-29T03:29:11.665Z,93696.08
2018-04-29T03:31:39.306Z,93688.40
2018-04-29T03:34:06.906Z,93693.97
2018-04-29T03:36:34.512Z,93688.09
2018-04-29T03:39:02.288Z,93692.67
2018-04-29T03:41:29.856Z,93694.86
2018-04-29T03:43:57.643Z,93703.55
2018-04-29T03:46:25.352Z,93708.23
2018-04-29T03:48:52.978Z,93703.94
2018-04-29T03:51:20.759Z,93697.25
2018-04-29T03:53:49.158Z,93698.15
2018-04-29T03:56:17.038Z,93699.98
2018-04-29T03:58:56.431Z,93704.84
2018-04-29T04:01:35.800Z,93712.55
2018-04-29T04:04:03.472Z,93708.92
2018-04-29T04:06:31.110Z,93711.66
2018-04-29T04:08:58.784Z,93718.42
2018-04-29T04:11:27.076Z,93716.45
2018-04-29T04:13:54.688Z,93718.41
2018-04-29T04:16:22.324Z,93728.04
2018-04-29T04:18:50.017Z,93728.24
2018-04-29T04:21:17.715Z,93729.47
2018-04-29T04:23:45.393Z,93732.92
2018-04-29T04:26:13.034Z,93733.41
2018-04-29T04:28:40.673Z,93739.47
2018-04-29T04:31:08.444Z,93737.09
2018-04-29T04:33:36.107Z,93745.06
2018-04-29T04:36:03.726Z,93733.61
2018-04-29T04:38:31.356Z,93736.89
2018-04-29T04:40:59.236Z,93735.55
2018-04-29T04:43:26.927Z,93742.23
2018-04-29T04:45:55.393Z,93738.48
2018-04-29T04:48:23.252Z,93738.42
2018-04-29T04:50:51.047Z,93740.12
2018-04-29T04:53:18.967Z,93743.63
2018-04-29T04:55:46.702Z,93747.91
2018-04-29T04:58:14.436Z,93759.94
2018-04-29T05:00:42.097Z,93758.09
2018-04-29T05:03:11.498Z,93760.89
2018-04-29T05:05:39.171Z,93762.17
2018-04-29T05:08:06.982Z,93763.34
2018-04-29T05:10:34.806Z,93758.00
2018-04-29T05:13:02.517Z,93760.84
2018-04-29T05:15:30.108Z,93759.73
2018-04-29T05:17:57.745Z,93761.23
2018-04-29T05:20:25.392Z,93756.23
2018-04-29T05:22:53.178Z,93757.75
2018-04-29T05:25:21.746Z,93765.85
2018-04-29T05:27:49.385Z,93770.35
2018-04-29T05:30:17.177Z,93771.75
2018-04-29T05:32:45.779Z,93768.93
2018-04-29T05:35:13.517Z,93764.49
2018-04-29T05:37:41.386Z,93756.37
2018-04-29T05:40:10.405Z,93760.85
2018-04-29T05:42:38.631Z,93757.80
2018-04-29T05:45:08.336Z,93757.50
2018-04-29T05:47:36.781Z,93752.56
2018-04-29T05:50:04.694Z,93761.62
2018-04-29T05:52:32.382Z,93749.73
2018-04-29T05:55:00.443Z,93751.47
2018-04-29T05:57:29.309Z,93749.89
2018-04-29T05:59:57.405Z,93754.31
2018-04-29T06:02:25.398Z,93747.26
2018-04-29T06:04:53.153Z,93749.01
2018-04-29T06:07:20.919Z,93746.38
2018-04-29T06:09:48.526Z,93742.08
2018-04-29T06:12:16.144Z,93739.84
2018-04-29T06:14:43.865Z,93737.98
2018-04-29T06:17:12.691Z,93743.92
2018-04-29T06:19:40.472Z,93744.17
2018-04-29T06:22:08.240Z,93742.22
2018-04-29T06:24:35.969Z,93737.84
2018-04-29T06:27:04.411Z,93730.45
2018-04-29T06:29:32.610Z,93729.58
2018-04-29T06:32:00.290Z,93731.03
2018-04-29T06:34:27.970Z,93731.27
2018-04-29T06:36:55.592Z,93733.73
2018-04-29T06:39:23.673Z,93731.86
2018-04-29T06:41:53.124Z,93726.93
2018-04-29T06:44:20.851Z,93724.30
2018-04-29T06:46:49.345Z,93724.05
2018-04-29T06:49:17.015Z,93725.60
2018-04-29T06:51:44.676Z,93732.59
2018-04-29T06:54:12.550Z,93727.64
2018-04-29T06:56:42.519Z,93732.14
2018-04-29T06:59:10.175Z,93730.89
2018-04-29T07:01:38.091Z,93730.22
2018-04-29T07:04:06.805Z,93730.09
2018-04-29T07:06:34.470Z,93741.38
2018-04-29T07:09:02.759Z,93731.77
2018-04-29T07:11:30.551Z,93729.72
2018-04-29T07:13:58.165Z,93724.20
2018-04-29T07:16:26.742Z,93714.36
2018-04-29T07:18:54.523Z,93712.52
2018-04-29T07:21:22.220Z,93706.14
2018-04-29T07:23:50.511Z,93708.25
2018-04-29T07:26:18.195Z,93699.17
2018-04-29T07:28:46.023Z,93697.97
2018-04-29T07:31:13.827Z,93702.61
2018-04-29T07:33:41.474Z,93696.87
2018-04-29T07:36:09.362Z,93694.39
2018-04-29T07:38:37.121Z,93694.99
2018-04-29T07:41:05.685Z,93700.86
2018-04-29T07:43:33.571Z,93695.72
2018-04-29T07:46:01.228Z,93697.52
2018-04-29T07:48:28.899Z,93698.64
2018-04-29T07:50:56.801Z,93701.97
2018-04-29T07:53:24.411Z,93694.12
2018-04-29T07:55:52.090Z,93689.70
2018-04-29T07:58:19.752Z,93686.17
2018-04-29T08:00:47.612Z,93681.21
2018-04-29T08:03:15.169Z,93684.59
2018-04-29T08:05:42.833Z,93686.18
2018-04-29T08:08:10.943Z,93677.53
2018-04-29T08:10:38.831Z,93668.49
2018-04-29T08:13:07.240Z,93667.08
2018-04-29T08:15:34.969Z,93659.44
2018-04-29T08:18:02.691Z,93660.17
2018-04-29T08:20:32.287Z,93652.98
2018-04-29T08:22:59.924Z,93650.78
2018-04-29T08:25:27.574Z,93652.39
2018-04-29T08:27:55.254Z,93656.14
2018-04-29T08:30:22.976Z,93653.88
2018-04-29T08:32:50.665Z,93649.64
2018-04-29T08:35:18.283Z,93636.87
2018-04-29T08:37:45.984Z,93641.53
2018-04-29T08:40:13.683Z,93638.22
2018-04-29T08:42:41.278Z,93628.09
2018-04-29T08:45:09.014Z,93618.44
2018-04-29T08:47:36.643Z,93623.38
2018-04-29T08:50:04.735Z,93625.37
2018-04-29T08:52:32.429Z,93628.34
2018-04-29T08:55:00.112Z,93634.05
2018-04-29T08:57:27.769Z,93627.11
2018-04-29T08:59:55.438Z,93621.95
2018-04-29T09:02:23.073Z,93622.43
2018-04-29T09:04:50.758Z,93617.58
2018-04-29T09:07:18.431Z,93616.23
2018-04-29T09:09:46.110Z,93614.03
2018-04-29T09:12:13.735Z,93616.84
2018-04-29T09:14:41.430Z,93613.80
2018-04-29T09:17:09.118Z,93611.01
2018-04-29T09:19:37.815Z,93607.73
2018-04-29T09:22:05.466Z,93600.67
2018-04-29T09:24:33.168Z,93594.83
2018-04-29T09:27:00.827Z,93594.02
2018-04-29T09:29:28.488Z,93590.52
2018-04-29T09:31:56.206Z,93593.63
2018-04-29T09:34:23.886Z,93586.37
2018-04-29T09:36:51.676Z,93588.45
2018-04-29T09:39:19.365Z,93582.51
2018-04-29T09:41:47.038Z,93578.27
2018-04-29T09:44:14.835Z,93578.67
2018-04-29T09:46:42.482Z,93578.64
2018-04-29T09:49:10.254Z,93576.88
2018-04-29T09:51:38.028Z,93570.02
2018-04-29T09:54:05.723Z,93567.69
2018-04-29T09:56:33.506Z,93565.34
2018-04-29T09:59:01.209Z,93558.95
2018-04-29T10:01:28.877Z,93547.52
2018-04-29T10:03:56.568Z,93551.20
2018-04-29T10:06:24.228Z,93543.28
2018-04-29T10:08:51.849Z,93528.69
2018-04-29T10:11:19.457Z,93530.47
2018-04-29T10:13:47.121Z,93523.11
2018-04-29T10:16:14.805Z,93522.08
2018-04-29T10:18:42.465Z,93524.24
2018-04-29T10:21:10.082Z,93518.11
2018-04-29T10:23:38.902Z,93509.91
2018-04-29T10:26:06.504Z,93503.00
2018-04-29T10:28:34.176Z,93502.55
2018-04-29T10:31:01.798Z,93503.06
2018-04-29T10:33:29.458Z,93496.36
2018-04-29T10:35:57.065Z,93495.06
2018-04-29T10:38:24.730Z,93487.58
2018-04-29T10:40:52.440Z,93484.53
2018-04-29T10:43:20.066Z,93482.63
2018-04-29T10:45:47.795Z,93478.45
2018-04-29T10:48:15.449Z,93473.86
2018-04-29T10:50:43.084Z,93470.92
2018-04-29T10:53:10.775Z,93466.25
2018-04-29T10:55:38.513Z,93469.12
2018-04-29T10:58:06.127Z,93463.23
2018-04-29T11:00:33.811Z,93459.36
2018-04-29T11:03:01.508Z,93456.36
2018-04-29T11:05:29.215Z,93456.56
2018-04-29T11:07:56.906Z,93454.73
2018-04-29T11:10:24.625Z,93452.30
2018-04-29T11:12:52.286Z,93449.50
2018-04-29T11:15:19.995Z,93444.32
2018-04-29T11:17:47.779Z,93439.01
2018-04-29T11:20:15.451Z,93445.80
2018-04-29T11:22:43.109Z,93437.81
2018-04-29T11:25:10.713Z,93436.38
2018-04-29T11:27:38.432Z,93440.23
2018-04-29T11:30:06.112Z,93433.48
2018-04-29T11:32:33.757Z,93429.99
2018-04-29T11:35:01.423Z,93426.50
2018-04-29T11:37:29.138Z,93425.64
2018-04-29T11:39:56.827Z,93419.70
2018-04-29T11:42:24.503Z,93424.32
2018-04-29T11:44:52.109Z,93423.70
2018-04-29T11:47:19.766Z,93425.30
2018-04-29T11:49:47.440Z,93421.91
2018-04-29T11:52:15.035Z,93426.13
2018-04-29T11:54:42.689Z,93424.18
2018-04-29T11:57:10.354Z,93416.30
2018-04-29T11:59:38.076Z,93415.36
2018-04-29T12:02:05.777Z,93413.41
2018-04-29T12:04:34.105Z,93412.97
2018-04-29T12:07:01.713Z,93404.30
2018-04-29T12:09:29.523Z,93407.23
2018-04-29T12:11:57.174Z,93411.18
2018-04-29T12:14:24.863Z,93400.92
2018-04-29T12:16:52.491Z,93396.62
2018-04-29T12:19:20.098Z,93389.33
2018-04-29T12:21:48.648Z,93390.16
2018-04-29T12:24:16.312Z,93398.16
2018-04-29T12:26:44.017Z,93400.13
2018-04-29T12:29:11.851Z,93393.08
2018-04-29T12:31:39.491Z,93376.60
2018-04-29T12:34:07.375Z,93378.67
2018-04-29T12:36:35.038Z,93375.20
2018-04-29T12:39:02.681Z,93372.22
2018-04-29T12:41:30.335Z,93369.86
2018-04-29T12:43:57.981Z,93364.92
2018-04-29T12:46:25.620Z,93370.16
2018-04-29T12:48:53.254Z,93356.63
2018-04-29T12:51:20.842Z,93357.59
2018-04-29T12:53:48.508Z,93351.25
2018-04-29T12:56:16.139Z,93343.82
2018-04-29T12:58:43.836Z,93361.41
2018-04-29T13:01:11.441Z,93355.56
2018-04-29T13:03:39.189Z,93352.55
2018-04-29T13:06:06.831Z,93352.79
2018-04-29T13:08:34.487Z,93350.50
2018-04-29T13:11:02.115Z,93355.44
2018-04-29T13:13:29.774Z,93350.68
2018-04-29T13:15:57.376Z,93344.56
2018-04-29T13:18:25.070Z,93347.50
2018-04-29T13:20:52.759Z,93335.25
2018-04-29T13:23:20.411Z,93340.30
2018-04-29T13:25:48.029Z,93339.00
2018-04-29T13:28:15.650Z,93334.23
2018-04-29T13:30:43.321Z,93329.34
2018-04-29T13:33:10.949Z,93327.22
2018-04-29T13:35:38.669Z,93327.83
2018-04-29T13:38:06.342Z,93327.48
2018-04-29T13:40:34.003Z,93327.36
2018-04-29T13:43:01.681Z,93329.69
2018-04-29T13:45:29.330Z,93328.50
2018-04-29T13:47:56.931Z,93317.50
2018-04-29T13:50:25.758Z,93319.02
2018-04-29T13:52:53.387Z,93314.45
2018-04-29T13:55:21.094Z,93304.81
2018-04-29T13:57:48.719Z,93315.63
2018-04-29T14:00:16.423Z,93315.16
2018-04-29T14:02:44.119Z,93312.48
2018-04-29T14:05:11.785Z,93302.06
2018-04-29T14:07:39.390Z,93299.15
2018-04-29T14:10:08.133Z,93289.59
2018-04-29T14:12:36.712Z,93289.17
2018-04-29T14:15:04.337Z,93291.91
2018-04-29T14:17:31.938Z,93286.58
2018-04-29T14:19:59.618Z,93284.72
2018-04-29T14:22:27.262Z,93273.50
2018-04-29T14:24:54.932Z,93281.81
2018-04-29T14:27:22.572Z,93276.92
2018-04-29T14:29:50.255Z,93274.12
2018-04-29T14:32:17.921Z,93275.59
2018-04-29T14:34:45.576Z,93268.20
2018-04-29T14:37:13.246Z,93265.57
2018-04-29T14:39:40.906Z,93261.67
2018-04-29T14:42:08.576Z,93266.59
2018-04-29T14:44:36.435Z,93270.99
2018-04-29T14:47:04.177Z,93270.17
2018-04-29T14:49:31.971Z,93267.55
2018-04-29T14:51:59.673Z,93268.91
2018-04-29T14:54:27.386Z,93262.44
2018-04-29T14:56:55.072Z,93264.19
2018-04-29T14:59:22.776Z,93263.70
2018-04-29T15:01:50.522Z,93266.78
2018-04-29T15:04:18.308Z,93269.46
2018-04-29T15:06:46.018Z,93269.97
2018-04-29T15:09:13.697Z,93272.34
2018-04-29T15:11:41.491Z,93273.68
2018-04-29T15:14:09.210Z,93268.13
2018-04-29T15:16:36.920Z,93277.16
2018-04-29T15:19:04.596Z,93277.65
2018-04-29T15:21:32.250Z,93267.25
2018-04-29T15:24:00.884Z,93269.38
2018-04-29T15:26:28.553Z,93278.87
2018-04-29T15:28:56.567Z,93274.45
2018-04-29T15:31:24.228Z,93266.51
2018-04-29T15:33:51.875Z,93267.20
2018-04-29T15:36:19.538Z,93271.83
2018-04-29T15:38:47.172Z,93257.66
2018-04-29T15:41:14.848Z,93261.81
2018-04-29T15:43:42.680Z,93256.66
2018-04-29T15:46:10.292Z,93267.80
2018-04-29T15:48:37.981Z,93259.38
2018-04-29T15:51:05.652Z,93262.91
2018-04-29T15:53:33.333Z,93254.00
2018-04-29T15:56:00.946Z,93255.27
2018-04-29T15:58:28.603Z,93255.98
2018-04-29T16:00:56.194Z,93262.25
2018-04-29T16:03:23.795Z,93259.53
2018-04-29T16:05:51.510Z,93264.20
2018-04-29T16:08:19.118Z,93252.23
2018-04-29T16:10:46.896Z,93262.56
2018-04-29T16:13:14.608Z,93258.90
2018-04-29T16:15:42.305Z,93266.83
2018-04-29T16:18:09.988Z,93269.53
2018-04-29T16:20:37.629Z,93268.73
2018-04-29T16:23:05.362Z,93274.52
2018-04-29T16:25:33.044Z,93277.27
2018-04-29T16:28:01.944Z,93273.80
2018-04-29T16:30:29.548Z,93272.41
2018-04-29T16:32:57.234Z,93271.63
2018-04-29T16:35:24.985Z,93275.78
2018-04-29T16:37:53.682Z,93283.30
2018-04-29T16:40:21.349Z,93286.17
2018-04-29T16:42:49.891Z,93294.53
2018-04-29T16:45:17.485Z,93294.80
2018-04-29T16:47:45.151Z,93288.94
2018-04-29T16:50:12.788Z,93288.61
2018-04-29T16:52:40.443Z,93284.73
2018-04-29T16:55:08.112Z,93295.38
2018-04-29T16:57:35.817Z,93294.06
2018-04-29T17:00:03.470Z,93284.33
2018-04-29T17:02:31.112Z,93269.52
2018-04-29T17:04:58.888Z,93280.52
2018-04-29T17:07:26.583Z,93279.97
2018-04-29T17:09:54.219Z,93288.19
2018-04-29T17:12:21.919Z,93287.41
2018-04-29T17:14:49.623Z,93282.80
2018-04-29T17:17:17.352Z,93291.70
2018-04-29T17:19:45.067Z,93286.55
2018-04-29T17:22:12.778Z,93294.67
2018-04-29T17:24:40.468Z,93294.84
2018-04-29T17:27:08.189Z,93286.63
2018-04-29T17:29:35.890Z,93281.64
2018-04-29T17:32:03.604Z,93284.98
2018-04-29T17:34:31.278Z,93284.63
2018-04-29T17:36:58.926Z,93293.30
2018-04-29T17:39:26.653Z,93289.42
2018-04-29T17:41:54.288Z,93285.86
2018-04-29T17:44:21.963Z,93281.04
2018-04-29T17:46:49.663Z,93288.79
2018-04-29T17:49:17.331Z,93283.39
2018-04-29T17:51:46.573Z,93290.24
2018-04-29T17:54:14.268Z,93277.45
2018-04-29T17:56:41.978Z,93274.92
2018-04-29T17:59:09.644Z,93274.05
2018-04-29T18:01:37.535Z,93277.18
2018-04-29T18:04:05.225Z,93273.17
2018-04-29T18:06:32.885Z,93277.20
2018-04-29T18:09:00.629Z,93278.41
2018-04-29T18:11:28.307Z,93279.63
2018-04-29T18:13:55.947Z,93272.80
2018-04-29T18:16:23.632Z,93277.72
2018-04-29T18:18:51.365Z,93278.13
2018-04-29T18:21:19.068Z,93273.08
2018-04-29T18:23:46.635Z,93271.25
2018-04-29T18:26:14.438Z,93283.20
2018-04-29T18:28:42.132Z,93286.05
2018-04-29T18:31:09.883Z,93282.48
2018-04-29T18:33:37.583Z,93290.45
2018-04-29T18:36:05.376Z,93293.37
2018-04-29T18:38:33.130Z,93291.67
2018-04-29T18:41:00.866Z,93283.56
2018-04-29T18:43:28.549Z,93280.09
2018-04-29T18:45:56.359Z,93291.97
2018-04-29T18:48:24.055Z,93290.19
2018-04-29T18:50:51.996Z,93296.57
2018-04-29T18:53:19.590Z,93305.27
2018-04-29T18:55:47.341Z,93308.17
2018-04-29T18:58:15.075Z,93306.47
2018-04-29T19:00:42.745Z,93312.95
2018-04-29T19:03:10.538Z,93314.57
2018-04-29T19:06:00.667Z,93314.55
2018-04-29T19:08:28.401Z,93321.89
2018-04-29T19:10:56.247Z,93317.55
2018-04-29T19:13:24.007Z,93324.00
2018-04-29T19:15:51.792Z,93322.08
2018-04-29T19:18:19.552Z,93318.95
2018-04-29T19:20:47.286Z,93315.96
2018-04-29T19:23:15.017Z,93321.19
2018-04-29T19:25:42.771Z,93318.91
2018-04-29T19:28:10.512Z,93316.59
2018-04-29T19:30:38.212Z,93313.00
2018-04-29T19:33:05.953Z,93309.77
2018-04-29T19:35:33.747Z,93311.45
2018-04-29T19:38:01.425Z,93313.69
2018-04-29T19:40:29.218Z,93320.64
2018-04-29T19:42:56.904Z,93312.78
2018-04-29T19:45:24.592Z,93310.02
2018-04-29T19:47:52.308Z,93311.84
2018-04-29T19:50:19.989Z,93314.58
2018-04-29T19:52:47.743Z,93311.31
2018-04-29T19:55:15.336Z,93306.98
2018-04-29T19:57:42.987Z,93306.31
2018-04-29T20:00:10.662Z,93301.81
2018-04-29T20:02:38.371Z,93309.66
2018-04-29T20:05:06.004Z,93309.30
2018-04-29T20:07:33.913Z,93307.59
2018-04-29T20:10:01.613Z,93308.95
2018-04-29T20:12:29.315Z,93311.27
2018-04-29T20:14:56.923Z,93304.80
2018-04-29T20:17:24.762Z,93310.94
2018-04-29T20:19:53.678Z,93305.52
2018-04-29T20:22:21.396Z,93301.45
2018-04-29T20:24:49.002Z,93293.19
2018-04-29T20:27:17.580Z,93293.28
2018-04-29T20:29:45.214Z,93286.50
2018-04-29T20:32:12.903Z,93280.67
2018-04-29T20:34:40.550Z,93273.40
2018-04-29T20:37:08.243Z,93268.08
2018-04-29T20:39:35.949Z,93270.98
2018-04-29T20:42:03.700Z,93261.70
2018-04-29T20:44:31.359Z,93275.03
2018-04-29T20:46:59.006Z,93264.58
2018-04-29T20:49:26.664Z,93265.30
2018-04-29T20:51:54.731Z,93274.00
2018-04-29T20:54:22.432Z,93266.45
2018-04-29T20:56:50.251Z,93273.95
2018-04-29T20:59:17.955Z,93272.03
2018-04-29T21:01:45.663Z,93275.81
2018-04-29T21:04:14.006Z,93272.84
2018-04-29T21:06:41.691Z,93279.63
2018-04-29T21:09:09.295Z,93283.25
2018-04-29T21:11:36.977Z,93282.94
2018-04-29T21:14:04.990Z,93284.26
2018-04-29T21:16:32.641Z,93284.02
2018-04-29T21:19:00.264Z,93279.09
2018-04-29T21:21:27.903Z,93283.69
2018-04-29T21:23:55.547Z,93272.87
2018-04-29T21:26:23.169Z,93262.50
2018-04-29T21:28:50.827Z,93259.08
2018-04-29T21:31:18.441Z,93250.95
2018-04-29T21:33:46.065Z,93255.30
2018-04-29T21:36:13.785Z,93257.80
2018-04-29T21:38:41.516Z,93262.83
2018-04-29T21:41:09.187Z,93269.41
2018-04-29T21:43:36.852Z,93261.55
2018-04-29T21:46:04.609Z,93261.15
2018-04-29T21:48:32.273Z,93248.47
2018-04-29T21:50:59.920Z,93239.27
2018-04-29T21:53:27.620Z,93237.16
2018-04-29T21:55:55.330Z,93231.78
2018-04-29T21:58:23.079Z,93234.18
2018-04-29T22:00:50.809Z,93226.00
2018-04-29T22:03:18.498Z,93212.25
2018-04-29T22:05:46.528Z,93210.77
2018-04-29T22:08:14.184Z,93208.02
2018-04-29T22:10:41.818Z,93219.36
2018-04-29T22:13:09.536Z,93217.48
2018-04-29T22:15:37.184Z,93204.46
2018-04-29T22:18:04.871Z,93212.72
2018-04-29T22:20:32.516Z,93219.73
2018-04-29T22:23:00.116Z,93215.83
2018-04-29T22:25:27.787Z,93213.40
2018-04-29T22:27:55.432Z,93205.62
2018-04-29T22:30:23.885Z,93199.40
2018-04-29T22:32:51.500Z,93195.16
2018-04-29T22:35:19.257Z,93190.88
2018-04-29T22:37:46.871Z,93191.59
2018-04-29T22:40:14.512Z,93200.32
2018-04-29T22:42:42.799Z,93196.86
2018-04-29T22:45:10.442Z,93187.87
2018-04-29T22:47:38.055Z,93194.31
2018-04-29T22:50:05.711Z,93178.61
2018-04-29T22:52:33.303Z,93181.89
2018-04-29T22:55:00.964Z,93180.17
2018-04-29T22:57:28.589Z,93166.91
2018-04-29T22:59:56.243Z,93175.34
2018-04-29T23:02:23.874Z,93166.55
2018-04-29T23:04:51.499Z,93175.67
2018-04-29T23:07:19.130Z,93178.44
2018-04-29T23:09:46.771Z,93165.16
2018-04-29T23:12:14.391Z,93166.82
2018-04-29T23:14:42.010Z,93152.95
2018-04-29T23:17:09.671Z,93160.12
2018-04-29T23:19:37.346Z,93142.60
2018-04-29T23:22:04.940Z,93138.42
2018-04-29T23:24:32.652Z,93130.19
2018-04-29T23:27:00.351Z,93138.30
2018-04-29T23:29:28.008Z,93132.55
2018-04-29T23:31:55.809Z,93131.17
2018-04-29T23:34:23.433Z,93130.58
2018-04-29T23:36:51.166Z,93125.21
2018-04-29T23:39:18.745Z,93110.95
2018-04-29T23:41:46.408Z,93119.59
2018-04-29T23:44:14.039Z,93111.71
2018-04-29T23:46:41.676Z,93108.41
2018-04-29T23:49:09.342Z,93095.61
2018-04-29T23:51:36.990Z,93089.05
2018-04-29T23:54:04.620Z,93071.59
2018-04-29T23:56:32.333Z,93077.08
2018-04-29T23:58:59.951Z,93055.13
